createdAt,value
2022-10-15T00:00:43.829Z,100.00
2022-10-15T00:01:47.823Z,100.00
2022-10-15T00:02:51.459Z,100.00
2022-10-15T00:03:57.406Z,100.00
2022-10-15T00:05:01.380Z,100.00
2022-10-15T00:06:12.786Z,100.00
2022-10-15T00:07:18.180Z,100.00
2022-10-15T00:08:23.281Z,100.00
2022-10-15T00:09:30.587Z,100.00
2022-10-15T00:10:35.422Z,100.00
2022-10-15T00:11:40.813Z,100.00
2022-10-15T00:12:46.209Z,100.00
2022-10-15T00:13:50.752Z,100.00
2022-10-15T00:14:54.983Z,100.00
2022-10-15T00:15:58.861Z,100.00
2022-10-15T00:17:02.607Z,100.00
2022-10-15T00:18:06.543Z,100.00
2022-10-15T00:19:11.085Z,100.00
2022-10-15T00:20:15.111Z,100.00
2022-10-15T00:21:21.515Z,100.00
2022-10-15T00:22:25.545Z,100.00
2022-10-15T00:23:31.465Z,100.00
2022-10-15T00:24:36.446Z,100.00
2022-10-15T00:25:42.352Z,100.00
2022-10-15T00:26:45.931Z,100.00
2022-10-15T00:27:49.484Z,100.00
2022-10-15T00:28:57.005Z,100.00
2022-10-15T00:30:01.035Z,100.00
2022-10-15T00:31:09.511Z,100.00
2022-10-15T00:32:13.595Z,100.00
2022-10-15T00:33:17.101Z,100.00
2022-10-15T00:34:23.301Z,100.00
2022-10-15T00:35:35.968Z,100.00
2022-10-15T00:36:40.111Z,100.00
2022-10-15T00:37:46.298Z,100.00
2022-10-15T00:38:54.976Z,100.00
2022-10-15T00:40:05.393Z,100.00
2022-10-15T00:41:21.636Z,100.00
2022-10-15T00:42:28.514Z,100.00
2022-10-15T00:44:02.465Z,100.00
2022-10-15T00:45:12.443Z,100.00
2022-10-15T00:46:46.181Z,100.00
2022-10-15T00:47:53.316Z,100.00
2022-10-15T00:49:25.582Z,100.00
2022-10-15T00:50:36.913Z,100.00
2022-10-15T00:51:47.979Z,100.00
2022-10-15T00:53:06.082Z,100.00
2022-10-15T00:54:17.213Z,100.00
2022-10-15T00:55:34.594Z,100.00
2022-10-15T00:56:43.738Z,100.00
2022-10-15T00:57:52.810Z,100.00
2022-10-15T00:59:02.337Z,100.00
2022-10-15T01:00:15.890Z,100.00
2022-10-15T01:01:19.765Z,100.00
2022-10-15T01:02:24.583Z,100.00
2022-10-15T01:03:31.199Z,100.00
2022-10-15T01:04:37.848Z,100.00
2022-10-15T01:06:09.794Z,100.00
2022-10-15T01:08:26.102Z,100.00
2022-10-15T01:09:34.966Z,100.00
2022-10-15T01:11:10.277Z,100.00
2022-10-15T01:12:56.618Z,100.00
2022-10-15T01:14:34.872Z,100.00
2022-10-15T01:16:07.034Z,100.00
2022-10-15T01:17:37.524Z,100.00
2022-10-15T01:19:49.011Z,100.00
2022-10-15T01:21:21.207Z,100.00
2022-10-15T01:22:33.955Z,100.00
2022-10-15T01:24:26.712Z,100.00
2022-10-15T01:26:09.135Z,100.00
2022-10-15T01:27:50.126Z,100.00
2022-10-15T01:29:44.366Z,100.00
2022-10-15T01:31:40.975Z,100.00
2022-10-15T01:33:12.651Z,100.00
2022-10-15T01:34:51.774Z,100.00
2022-10-15T01:36:26.688Z,100.00
2022-10-15T01:37:57.187Z,100.00
2022-10-15T01:39:35.191Z,100.00
2022-10-15T01:41:02.590Z,100.00
2022-10-15T01:42:34.249Z,100.00
2022-10-15T01:43:58.872Z,100.00
2022-10-15T01:45:27.852Z,100.00
2022-10-15T01:46:47.020Z,100.00
2022-10-15T01:47:59.142Z,100.00
2022-10-15T01:49:07.353Z,100.00
2022-10-15T01:50:16.642Z,100.00
2022-10-15T01:51:25.718Z,100.00
2022-10-15T01:52:37.529Z,100.00
2022-10-15T01:53:44.128Z,100.00
2022-10-15T01:54:52.678Z,100.00
2022-10-15T01:56:09.925Z,100.00
2022-10-15T01:57:16.138Z,100.00
2022-10-15T01:58:27.524Z,100.00
2022-10-15T01:59:37.075Z,100.00
2022-10-15T02:02:36.355Z,100.00
2022-10-15T02:03:58.007Z,100.00
2022-10-15T02:05:05.157Z,100.00
2022-10-15T02:06:17.624Z,100.00
2022-10-15T02:08:43.561Z,100.00
2022-10-15T02:10:21.906Z,100.00
2022-10-15T02:11:26.880Z,100.00
2022-10-15T02:12:39.030Z,100.00
2022-10-15T02:14:10.988Z,100.00
2022-10-15T02:15:38.121Z,100.00
2022-10-15T02:16:49.277Z,100.00
2022-10-15T02:18:30.869Z,100.00
2022-10-15T02:19:56.596Z,100.00
2022-10-15T02:21:18.242Z,100.00
2022-10-15T02:22:37.539Z,100.00
2022-10-15T02:23:49.738Z,100.00
2022-10-15T02:25:07.758Z,100.00
2022-10-15T02:26:15.334Z,100.00
2022-10-15T02:27:21.439Z,100.00
2022-10-15T02:28:31.002Z,100.00
2022-10-15T02:29:38.995Z,100.00
2022-10-15T02:30:45.994Z,100.00
2022-10-15T02:31:53.471Z,100.00
2022-10-15T02:33:03.380Z,100.00
2022-10-15T02:34:13.545Z,100.00
2022-10-15T02:35:26.740Z,100.00
2022-10-15T02:36:31.522Z,100.00
2022-10-15T02:37:45.496Z,100.00
2022-10-15T02:38:57.299Z,100.00
2022-10-15T02:40:05.887Z,100.00
2022-10-15T02:41:13.916Z,100.00
2022-10-15T02:42:20.844Z,100.00
2022-10-15T02:43:27.552Z,100.00
2022-10-15T02:44:31.579Z,100.00
2022-10-15T02:45:40.015Z,100.00
2022-10-15T02:46:43.942Z,100.00
2022-10-15T02:47:50.718Z,100.00
2022-10-15T02:48:55.497Z,100.00
2022-10-15T02:50:01.015Z,100.00
2022-10-15T02:51:07.048Z,100.00
2022-10-15T02:52:13.555Z,100.00
2022-10-15T02:53:20.251Z,100.00
2022-10-15T02:54:25.185Z,100.00
2022-10-15T02:55:32.320Z,100.00
2022-10-15T02:56:39.761Z,100.00
2022-10-15T02:57:46.422Z,100.00
2022-10-15T02:58:50.733Z,100.00
2022-10-15T02:59:55.288Z,100.00
2022-10-15T03:01:00.952Z,100.00
2022-10-15T03:02:05.010Z,100.00
2022-10-15T03:03:08.516Z,100.00
2022-10-15T03:04:12.551Z,100.00
2022-10-15T03:05:20.196Z,100.00
2022-10-15T03:06:24.878Z,100.00
2022-10-15T03:07:30.281Z,100.00
2022-10-15T03:08:34.021Z,100.00
2022-10-15T03:09:39.233Z,100.00
2022-10-15T03:10:54.082Z,100.00
2022-10-15T03:12:01.350Z,100.00
2022-10-15T03:13:07.836Z,100.00
2022-10-15T03:14:12.708Z,100.00
2022-10-15T03:15:19.549Z,100.00
2022-10-15T03:16:33.037Z,100.00
2022-10-15T03:17:38.668Z,100.00
2022-10-15T03:18:44.041Z,100.00
2022-10-15T03:19:47.841Z,100.00
2022-10-15T03:20:58.755Z,100.00
2022-10-15T03:22:03.268Z,100.00
2022-10-15T03:23:09.113Z,100.00
2022-10-15T03:24:14.509Z,100.00
2022-10-15T03:25:22.076Z,100.00
2022-10-15T03:26:26.814Z,100.00
2022-10-15T03:27:30.858Z,100.00
2022-10-15T03:28:34.902Z,100.00
2022-10-15T03:29:39.281Z,100.00
2022-10-15T03:30:44.522Z,100.00
2022-10-15T03:31:50.440Z,100.00
2022-10-15T03:32:55.931Z,100.00
2022-10-15T03:34:00.799Z,100.00
2022-10-15T03:35:07.563Z,100.00
2022-10-15T03:36:14.450Z,100.00
2022-10-15T03:37:23.228Z,100.00
2022-10-15T03:38:32.610Z,100.00
2022-10-15T03:39:37.310Z,100.00
2022-10-15T03:40:40.986Z,100.00
2022-10-15T03:41:46.840Z,100.00
2022-10-15T03:42:56.673Z,100.00
2022-10-15T03:44:07.247Z,100.00
2022-10-15T03:45:11.998Z,100.00
2022-10-15T03:46:16.942Z,100.00
2022-10-15T03:47:25.363Z,100.00
2022-10-15T03:48:32.956Z,100.00
2022-10-15T03:49:38.293Z,100.00
2022-10-15T03:50:47.943Z,100.00
2022-10-15T03:51:51.976Z,100.00
2022-10-15T03:52:57.474Z,100.00
2022-10-15T03:54:01.757Z,100.00
2022-10-15T03:55:08.485Z,100.00
2022-10-15T03:56:12.949Z,100.00
2022-10-15T03:57:26.221Z,100.00
2022-10-15T03:58:34.668Z,100.00
2022-10-15T03:59:59.047Z,100.00
2022-10-15T04:01:18.737Z,100.00
2022-10-15T04:02:25.400Z,100.00
2022-10-15T04:03:31.591Z,100.00
2022-10-15T04:04:35.325Z,100.00
2022-10-15T04:05:53.729Z,100.00
2022-10-15T04:06:59.435Z,100.00
2022-10-15T04:08:05.144Z,100.00
2022-10-15T04:09:49.876Z,100.00
2022-10-15T04:10:56.925Z,100.00
2022-10-15T04:12:00.453Z,100.00
2022-10-15T04:13:07.789Z,100.00
2022-10-15T04:14:11.569Z,100.00
2022-10-15T04:15:17.456Z,100.00
2022-10-15T04:16:24.110Z,100.00
2022-10-15T04:17:38.684Z,100.00
2022-10-15T04:18:43.559Z,100.00
2022-10-15T04:19:48.446Z,100.00
2022-10-15T04:20:52.419Z,100.00
2022-10-15T04:22:00.791Z,100.00
2022-10-15T04:23:04.718Z,100.00
2022-10-15T04:24:09.254Z,100.00
2022-10-15T04:25:12.705Z,100.00
2022-10-15T04:26:16.251Z,100.00
2022-10-15T04:27:19.739Z,100.00
2022-10-15T04:28:23.551Z,100.00
2022-10-15T04:29:27.448Z,100.00
2022-10-15T04:30:30.973Z,100.00
2022-10-15T04:31:34.637Z,100.00
2022-10-15T04:32:38.155Z,100.00
2022-10-15T04:33:42.020Z,100.00
2022-10-15T04:34:51.022Z,100.00
2022-10-15T04:36:09.320Z,100.00
2022-10-15T04:37:15.735Z,100.00
2022-10-15T04:38:22.601Z,100.00
2022-10-15T04:39:27.376Z,100.00
2022-10-15T04:40:34.866Z,100.00
2022-10-15T04:41:40.174Z,100.00
2022-10-15T04:42:48.185Z,100.00
2022-10-15T04:43:57.318Z,100.00
2022-10-15T04:45:06.773Z,100.00
2022-10-15T04:46:10.979Z,100.00
2022-10-15T04:47:19.999Z,100.00
2022-10-15T04:48:25.989Z,100.00
2022-10-15T04:49:31.221Z,100.00
2022-10-15T04:50:35.760Z,100.00
2022-10-15T04:51:42.639Z,100.00
2022-10-15T04:52:46.822Z,100.00
2022-10-15T04:53:54.561Z,100.00
2022-10-15T04:54:59.130Z,100.00
2022-10-15T04:56:15.512Z,100.00
2022-10-15T04:57:22.781Z,100.00
2022-10-15T04:58:34.416Z,100.00
2022-10-15T04:59:38.538Z,100.00
2022-10-15T05:00:42.212Z,100.00
2022-10-15T05:01:45.951Z,100.00
2022-10-15T05:02:53.840Z,100.00
2022-10-15T05:03:58.789Z,100.00
2022-10-15T05:05:05.008Z,100.00
2022-10-15T05:06:12.720Z,100.00
2022-10-15T05:07:19.187Z,100.00
2022-10-15T05:08:23.620Z,100.00
2022-10-15T05:09:30.228Z,100.00
2022-10-15T05:10:35.123Z,100.00
2022-10-15T05:11:42.962Z,100.00
2022-10-15T05:12:49.330Z,100.00
2022-10-15T05:14:00.842Z,100.00
2022-10-15T05:15:08.572Z,100.00
2022-10-15T05:16:21.074Z,100.00
2022-10-15T05:17:25.338Z,100.00
2022-10-15T05:18:29.415Z,100.00
2022-10-15T05:19:33.219Z,100.00
2022-10-15T05:20:40.778Z,100.00
2022-10-15T05:21:44.567Z,100.00
2022-10-15T05:22:50.753Z,100.00
2022-10-15T05:23:54.961Z,100.00
2022-10-15T05:24:58.892Z,100.00
2022-10-15T05:26:07.746Z,100.00
2022-10-15T05:27:11.435Z,100.00
2022-10-15T05:28:15.363Z,100.00
2022-10-15T05:29:19.250Z,100.00
2022-10-15T05:30:23.130Z,100.00
2022-10-15T05:31:30.485Z,100.00
2022-10-15T05:32:34.711Z,100.00
2022-10-15T05:33:39.072Z,100.00
2022-10-15T05:34:43.236Z,100.00
2022-10-15T05:35:46.928Z,100.00
2022-10-15T05:36:50.701Z,100.00
2022-10-15T05:37:54.558Z,100.00
2022-10-15T05:39:01.839Z,100.00
2022-10-15T05:40:06.276Z,100.00
2022-10-15T05:41:10.254Z,100.00
2022-10-15T05:42:14.435Z,100.00
2022-10-15T05:43:18.542Z,100.00
2022-10-15T05:44:22.320Z,100.00
2022-10-15T05:45:26.364Z,100.00
2022-10-15T05:46:30.147Z,100.00
2022-10-15T05:47:33.853Z,100.00
2022-10-15T05:48:37.605Z,100.00
2022-10-15T05:49:41.344Z,100.00
2022-10-15T05:50:45.516Z,100.00
2022-10-15T05:51:49.578Z,100.00
2022-10-15T05:52:55.091Z,100.00
2022-10-15T05:53:59.277Z,100.00
2022-10-15T05:55:03.197Z,100.00
2022-10-15T05:56:08.724Z,100.00
2022-10-15T05:57:13.822Z,100.00
2022-10-15T05:58:17.692Z,100.00
2022-10-15T05:59:21.663Z,100.00
2022-10-15T06:00:25.284Z,100.00
2022-10-15T06:01:29.237Z,100.00
2022-10-15T06:02:33.468Z,100.00
2022-10-15T06:03:43.654Z,100.00
2022-10-15T06:04:49.086Z,99.99
2022-10-15T06:05:53.124Z,100.00
2022-10-15T06:06:57.453Z,99.74
2022-10-15T06:08:01.147Z,99.35
2022-10-15T06:09:05.009Z,99.20
2022-10-15T06:10:09.247Z,99.10
2022-10-15T06:11:13.142Z,99.12
2022-10-15T06:12:18.514Z,98.88
2022-10-15T06:13:23.248Z,98.78
2022-10-15T06:14:27.481Z,98.21
2022-10-15T06:15:32.130Z,98.45
2022-10-15T06:16:36.669Z,98.23
2022-10-15T06:17:40.662Z,98.25
2022-10-15T06:18:44.940Z,98.10
2022-10-15T06:19:48.613Z,98.03
2022-10-15T06:20:53.843Z,97.77
2022-10-15T06:21:58.323Z,97.52
2022-10-15T06:23:03.812Z,97.21
2022-10-15T06:24:09.930Z,97.02
2022-10-15T06:25:14.001Z,97.14
2022-10-15T06:26:17.760Z,96.96
2022-10-15T06:27:21.897Z,96.72
2022-10-15T06:28:26.373Z,96.63
2022-10-15T06:29:29.941Z,96.36
2022-10-15T06:30:33.955Z,96.33
2022-10-15T06:31:37.485Z,95.85
2022-10-15T06:32:50.556Z,95.59
2022-10-15T06:33:54.680Z,95.53
2022-10-15T06:34:58.813Z,94.92
2022-10-15T06:36:06.709Z,94.75
2022-10-15T06:37:10.915Z,94.42
2022-10-15T06:38:15.027Z,94.55
2022-10-15T06:39:19.364Z,94.50
2022-10-15T06:40:23.304Z,94.38
2022-10-15T06:41:26.909Z,94.22
2022-10-15T06:42:30.596Z,94.35
2022-10-15T06:43:35.497Z,93.86
2022-10-15T06:44:41.047Z,93.70
2022-10-15T06:45:46.052Z,93.55
2022-10-15T06:46:49.586Z,93.62
2022-10-15T06:47:53.541Z,92.98
2022-10-15T06:48:57.356Z,93.49
2022-10-15T06:50:01.226Z,92.74
2022-10-15T06:51:05.665Z,93.19
2022-10-15T06:52:09.394Z,93.08
2022-10-15T06:53:13.238Z,92.77
2022-10-15T06:54:16.852Z,93.16
2022-10-15T06:55:20.466Z,92.66
2022-10-15T06:56:24.247Z,92.57
2022-10-15T06:57:29.182Z,92.37
2022-10-15T06:58:33.070Z,91.99
2022-10-15T06:59:40.320Z,92.12
2022-10-15T07:00:45.329Z,91.37
2022-10-15T07:01:48.919Z,91.74
2022-10-15T07:02:54.812Z,91.39
2022-10-15T07:04:02.545Z,91.29
2022-10-15T07:05:07.017Z,90.74
2022-10-15T07:06:10.978Z,90.52
2022-10-15T07:07:15.520Z,90.41
2022-10-15T07:08:19.460Z,90.27
2022-10-15T07:09:24.134Z,89.73
2022-10-15T07:10:29.998Z,89.37
2022-10-15T07:11:37.021Z,89.54
2022-10-15T07:12:40.846Z,88.66
2022-10-15T07:13:45.256Z,87.45
2022-10-15T07:14:49.836Z,87.96
2022-10-15T07:15:56.139Z,86.91
2022-10-15T07:17:00.319Z,85.96
2022-10-15T07:18:05.201Z,86.40
2022-10-15T07:19:09.643Z,85.72
2022-10-15T07:20:13.258Z,85.57
2022-10-15T07:21:16.995Z,85.45
2022-10-15T07:22:21.111Z,85.11
2022-10-15T07:23:27.738Z,83.95
2022-10-15T07:24:31.818Z,81.65
2022-10-15T07:25:36.047Z,83.23
2022-10-15T07:26:40.003Z,83.30
2022-10-15T07:27:44.091Z,81.34
2022-10-15T07:28:48.644Z,82.20
2022-10-15T07:29:52.588Z,80.77
2022-10-15T07:31:05.492Z,81.17
2022-10-15T07:32:09.307Z,80.71
2022-10-15T07:33:13.254Z,79.33
2022-10-15T07:34:17.291Z,78.94
2022-10-15T07:35:21.041Z,78.20
2022-10-15T07:36:27.298Z,76.18
2022-10-15T07:37:31.759Z,76.89
2022-10-15T07:38:36.776Z,75.52
2022-10-15T07:39:42.842Z,75.95
2022-10-15T07:40:46.493Z,73.83
2022-10-15T07:41:51.217Z,74.16
2022-10-15T07:42:59.912Z,74.22
2022-10-15T07:44:04.526Z,72.76
2022-10-15T07:45:09.078Z,72.79
2022-10-15T07:46:12.932Z,72.83
2022-10-15T07:47:16.561Z,73.08
2022-10-15T07:48:20.494Z,72.58
2022-10-15T07:49:24.387Z,72.45
2022-10-15T07:50:32.299Z,71.79
2022-10-15T07:51:39.350Z,72.28
2022-10-15T07:52:43.233Z,72.52
2022-10-15T07:53:47.753Z,71.72
2022-10-15T07:54:51.398Z,70.51
2022-10-15T07:56:01.047Z,70.98
2022-10-15T07:57:07.218Z,70.19
2022-10-15T07:58:10.878Z,69.88
2022-10-15T07:59:14.721Z,68.84
2022-10-15T08:00:18.808Z,65.74
2022-10-15T08:01:22.981Z,66.43
2022-10-15T08:02:26.920Z,64.59
2022-10-15T08:03:30.976Z,63.36
2022-10-15T08:04:35.237Z,63.35
2022-10-15T08:05:38.991Z,62.72
2022-10-15T08:06:43.243Z,61.03
2022-10-15T08:07:49.793Z,58.23
2022-10-15T08:08:57.691Z,56.67
2022-10-15T08:10:02.398Z,54.13
2022-10-15T08:11:13.739Z,53.54
2022-10-15T08:12:18.853Z,52.75
2022-10-15T08:13:23.110Z,51.25
2022-10-15T08:14:27.063Z,48.70
2022-10-15T08:15:30.814Z,47.50
2022-10-15T08:16:34.604Z,47.99
2022-10-15T08:17:38.656Z,48.54
2022-10-15T08:18:43.527Z,46.11
2022-10-15T08:19:47.240Z,46.07
2022-10-15T08:20:54.082Z,43.53
2022-10-15T08:21:58.436Z,44.73
2022-10-15T08:23:02.910Z,45.13
2022-10-15T08:24:06.953Z,45.59
2022-10-15T08:25:10.732Z,43.40
2022-10-15T08:26:14.249Z,45.29
2022-10-15T08:27:18.160Z,44.47
2022-10-15T08:28:22.108Z,45.25
2022-10-15T08:29:25.728Z,44.91
2022-10-15T08:30:29.270Z,45.04
2022-10-15T08:31:33.069Z,44.71
2022-10-15T08:32:36.615Z,44.72
2022-10-15T08:33:40.150Z,44.44
2022-10-15T08:34:44.517Z,44.48
2022-10-15T08:35:48.154Z,43.91
2022-10-15T08:36:52.914Z,43.47
2022-10-15T08:37:56.918Z,43.54
2022-10-15T08:39:01.871Z,43.42
2022-10-15T08:40:08.049Z,43.43
2022-10-15T08:41:41.657Z,43.43
2022-10-15T08:42:47.048Z,43.94
2022-10-15T08:43:51.799Z,44.15
2022-10-15T08:45:02.558Z,43.45
2022-10-15T08:46:22.805Z,44.68
2022-10-15T08:47:43.907Z,44.90
2022-10-15T08:48:53.992Z,45.11
2022-10-15T08:50:01.288Z,44.62
2022-10-15T08:51:19.328Z,44.43
2022-10-15T08:52:40.848Z,44.31
2022-10-15T08:53:51.268Z,45.62
2022-10-15T08:55:00.224Z,45.59
2022-10-15T08:56:21.931Z,46.26
2022-10-15T08:57:50.647Z,45.84
2022-10-15T08:59:02.151Z,45.76
2022-10-15T09:00:24.522Z,46.06
2022-10-15T09:01:56.341Z,46.43
2022-10-15T09:03:10.712Z,46.51
2022-10-15T09:04:49.021Z,46.36
2022-10-15T09:06:20.261Z,46.54
2022-10-15T09:07:50.847Z,47.34
2022-10-15T09:09:26.045Z,47.95
2022-10-15T09:10:50.595Z,48.60
2022-10-15T09:12:08.684Z,49.18
2022-10-15T09:13:24.858Z,49.37
2022-10-15T09:14:36.088Z,49.74
2022-10-15T09:15:52.915Z,48.96
2022-10-15T09:17:01.222Z,47.51
2022-10-15T09:18:06.309Z,48.09
2022-10-15T09:19:21.466Z,48.22
2022-10-15T09:20:36.314Z,48.97
2022-10-15T09:21:39.963Z,49.43
2022-10-15T09:22:44.501Z,49.33
2022-10-15T09:23:48.843Z,49.40
2022-10-15T09:24:53.860Z,49.07
2022-10-15T09:26:13.020Z,49.41
2022-10-15T09:27:34.868Z,49.30
2022-10-15T09:29:15.770Z,47.35
2022-10-15T09:30:50.184Z,47.60
2022-10-15T09:32:31.610Z,47.28
2022-10-15T09:33:48.371Z,47.45
2022-10-15T09:35:26.424Z,47.87
2022-10-15T09:37:31.224Z,47.19
2022-10-15T09:39:04.283Z,45.71
2022-10-15T09:40:28.892Z,46.16
2022-10-15T09:41:54.016Z,46.03
2022-10-15T09:43:00.661Z,45.70
2022-10-15T09:44:11.505Z,45.72
2022-10-15T09:45:16.536Z,45.60
2022-10-15T09:46:20.730Z,44.42
2022-10-15T09:47:31.387Z,44.36
2022-10-15T09:48:46.905Z,44.22
2022-10-15T09:49:51.030Z,44.60
2022-10-15T09:51:20.989Z,44.06
2022-10-15T09:53:08.674Z,44.50
2022-10-15T09:54:55.052Z,44.58
2022-10-15T09:56:23.272Z,44.39
2022-10-15T09:57:30.943Z,44.74
2022-10-15T09:58:50.974Z,45.15
2022-10-15T10:00:04.152Z,44.95
2022-10-15T10:01:17.959Z,44.54
2022-10-15T10:02:25.384Z,44.70
2022-10-15T10:03:32.865Z,44.43
2022-10-15T10:04:38.847Z,44.94
2022-10-15T10:05:43.559Z,44.57
2022-10-15T10:06:59.627Z,44.39
2022-10-15T10:08:31.813Z,44.57
2022-10-15T10:09:54.707Z,44.03
2022-10-15T10:11:06.849Z,43.90
2022-10-15T10:12:24.322Z,44.20
2022-10-15T10:13:50.684Z,44.42
2022-10-15T10:15:02.424Z,43.91
2022-10-15T10:16:12.619Z,44.09
2022-10-15T10:17:21.731Z,44.55
2022-10-15T10:18:26.467Z,44.90
2022-10-15T10:19:30.306Z,44.57
2022-10-15T10:20:35.422Z,44.75
2022-10-15T10:21:42.202Z,44.19
2022-10-15T10:22:55.536Z,44.19
2022-10-15T10:24:26.350Z,44.22
2022-10-15T10:25:34.431Z,44.17
2022-10-15T10:26:38.549Z,44.35
2022-10-15T10:27:46.535Z,44.45
2022-10-15T10:29:00.314Z,44.84
2022-10-15T10:30:09.220Z,44.52
2022-10-15T10:31:13.382Z,44.66
2022-10-15T10:32:32.601Z,45.17
2022-10-15T10:33:50.148Z,45.06
2022-10-15T10:34:54.997Z,45.59
2022-10-15T10:36:01.281Z,46.31
2022-10-15T10:37:07.900Z,46.64
2022-10-15T10:38:31.855Z,47.98
2022-10-15T10:39:36.745Z,47.66
2022-10-15T10:40:40.648Z,47.94
2022-10-15T10:42:06.615Z,48.89
2022-10-15T10:43:28.507Z,48.92
2022-10-15T10:44:39.324Z,49.16
2022-10-15T10:46:05.591Z,49.42
2022-10-15T10:47:24.164Z,49.97
2022-10-15T10:48:46.467Z,50.33
2022-10-15T10:49:55.550Z,50.87
2022-10-15T10:51:16.701Z,50.76
2022-10-15T10:52:27.477Z,50.87
2022-10-15T10:53:31.315Z,50.98
2022-10-15T10:54:36.221Z,50.88
2022-10-15T10:55:40.808Z,51.39
2022-10-15T10:56:45.361Z,51.30
2022-10-15T10:57:53.207Z,51.53
2022-10-15T10:59:23.673Z,51.79
2022-10-15T11:00:41.427Z,51.31
2022-10-15T11:01:45.718Z,51.53
2022-10-15T11:02:51.998Z,50.73
2022-10-15T11:03:56.423Z,50.60
2022-10-15T11:05:00.732Z,50.28
2022-10-15T11:07:01.637Z,50.66
2022-10-15T11:08:23.734Z,50.82
2022-10-15T11:10:13.796Z,50.63
2022-10-15T11:11:37.642Z,50.22
2022-10-15T11:12:59.381Z,50.74
2022-10-15T11:14:39.733Z,50.63
2022-10-15T11:16:49.030Z,51.03
2022-10-15T11:18:14.742Z,51.24
2022-10-15T11:19:54.658Z,50.92
2022-10-15T11:21:28.567Z,51.45
2022-10-15T11:23:27.294Z,51.68
2022-10-15T11:25:06.614Z,51.54
2022-10-15T11:26:37.555Z,51.60
2022-10-15T11:28:17.337Z,51.36
2022-10-15T11:29:51.464Z,51.54
2022-10-15T11:31:29.907Z,51.56
2022-10-15T11:33:13.351Z,51.44
2022-10-15T11:34:52.505Z,51.47
2022-10-15T11:36:16.560Z,51.65
2022-10-15T11:37:35.697Z,51.71
2022-10-15T11:39:03.987Z,51.73
2022-10-15T11:40:37.276Z,51.63
2022-10-15T11:42:18.244Z,51.31
2022-10-15T11:43:52.763Z,51.15
2022-10-15T11:45:44.566Z,50.81
2022-10-15T11:47:14.340Z,50.89
2022-10-15T11:48:42.628Z,50.60
2022-10-15T11:50:26.864Z,50.08
2022-10-15T11:51:54.504Z,49.58
2022-10-15T11:53:38.493Z,49.29
2022-10-15T11:54:49.087Z,49.45
2022-10-15T11:56:02.751Z,49.47
2022-10-15T11:57:14.185Z,49.14
2022-10-15T11:59:07.401Z,49.41
2022-10-15T12:00:40.700Z,49.35
2022-10-15T12:01:58.307Z,49.19
2022-10-15T12:03:16.919Z,49.10
2022-10-15T12:04:56.455Z,48.42
2022-10-15T12:06:16.498Z,48.61
2022-10-15T12:07:38.108Z,48.53
2022-10-15T12:08:44.432Z,48.64
2022-10-15T12:09:57.792Z,48.40
2022-10-15T12:11:53.296Z,48.56
2022-10-15T12:13:27.785Z,48.71
2022-10-15T12:14:50.631Z,47.87
2022-10-15T12:16:03.361Z,47.49
2022-10-15T12:17:42.315Z,46.98
2022-10-15T12:19:00.863Z,47.31
2022-10-15T12:20:15.756Z,47.26
2022-10-15T12:21:57.649Z,47.39
2022-10-15T12:23:03.585Z,47.18
2022-10-15T12:24:47.535Z,46.88
2022-10-15T12:25:51.676Z,46.95
2022-10-15T12:26:55.527Z,47.25
2022-10-15T12:28:13.215Z,47.03
2022-10-15T12:29:28.155Z,46.95
2022-10-15T12:30:37.758Z,46.92
2022-10-15T12:31:53.980Z,46.84
2022-10-15T12:32:58.270Z,46.94
2022-10-15T12:34:01.966Z,46.92
2022-10-15T12:35:38.704Z,46.86
2022-10-15T12:36:42.711Z,47.23
2022-10-15T12:37:50.125Z,47.20
2022-10-15T12:39:16.082Z,47.25
2022-10-15T12:40:32.228Z,47.13
2022-10-15T12:41:45.452Z,47.49
2022-10-15T12:43:20.179Z,47.39
2022-10-15T12:44:31.988Z,47.53
2022-10-15T12:45:40.762Z,47.60
2022-10-15T12:46:44.501Z,47.65
2022-10-15T12:47:49.289Z,47.75
2022-10-15T12:49:00.133Z,47.55
2022-10-15T12:50:06.870Z,47.71
2022-10-15T12:51:31.461Z,47.77
2022-10-15T12:52:55.261Z,48.22
2022-10-15T12:54:00.976Z,48.18
2022-10-15T12:55:38.167Z,48.08
2022-10-15T12:56:42.140Z,47.75
2022-10-15T12:57:48.873Z,47.90
2022-10-15T12:58:56.940Z,47.76
2022-10-15T13:00:34.906Z,47.60
2022-10-15T13:01:45.609Z,47.48
2022-10-15T13:02:51.050Z,47.66
2022-10-15T13:03:57.792Z,47.76
2022-10-15T13:05:02.636Z,47.69
2022-10-15T13:06:22.345Z,47.70
2022-10-15T13:07:27.081Z,47.71
2022-10-15T13:08:34.656Z,47.64
2022-10-15T13:09:38.900Z,47.52
2022-10-15T13:10:58.249Z,47.41
2022-10-15T13:12:05.484Z,47.41
2022-10-15T13:13:19.927Z,47.37
2022-10-15T13:14:42.967Z,47.11
2022-10-15T13:16:01.799Z,47.19
2022-10-15T13:17:21.125Z,47.32
2022-10-15T13:18:26.961Z,47.14
2022-10-15T13:19:41.266Z,47.02
2022-10-15T13:20:47.693Z,47.13
2022-10-15T13:21:54.507Z,46.96
2022-10-15T13:23:31.090Z,47.17
2022-10-15T13:24:48.517Z,46.89
2022-10-15T13:25:53.770Z,47.13
2022-10-15T13:27:00.994Z,47.08
2022-10-15T13:28:37.179Z,47.16
2022-10-15T13:29:52.951Z,47.18
2022-10-15T13:30:58.395Z,46.95
2022-10-15T13:32:03.208Z,46.75
2022-10-15T13:33:12.359Z,46.28
2022-10-15T13:34:32.121Z,45.59
2022-10-15T13:35:40.361Z,45.67
2022-10-15T13:36:46.279Z,45.65
2022-10-15T13:37:50.563Z,45.71
2022-10-15T13:39:30.138Z,45.92
2022-10-15T13:40:34.482Z,45.84
2022-10-15T13:41:42.566Z,45.54
2022-10-15T13:43:24.103Z,45.75
2022-10-15T13:44:27.914Z,45.76
2022-10-15T13:45:32.974Z,45.87
2022-10-15T13:46:39.948Z,46.00
2022-10-15T13:47:50.939Z,45.74
2022-10-15T13:49:15.079Z,46.09
2022-10-15T13:50:35.085Z,45.94
2022-10-15T13:51:53.405Z,45.63
2022-10-15T13:53:21.483Z,45.63
2022-10-15T13:54:31.675Z,45.84
2022-10-15T13:55:41.937Z,45.66
2022-10-15T13:56:57.902Z,45.52
2022-10-15T13:58:06.166Z,45.66
2022-10-15T13:59:19.778Z,45.67
2022-10-15T14:00:35.913Z,45.27
2022-10-15T14:01:56.293Z,45.30
2022-10-15T14:03:23.100Z,45.13
2022-10-15T14:04:33.331Z,44.99
2022-10-15T14:05:38.179Z,45.07
2022-10-15T14:06:56.528Z,45.37
2022-10-15T14:08:01.839Z,45.32
2022-10-15T14:09:24.435Z,45.70
2022-10-15T14:10:28.392Z,45.64
2022-10-15T14:11:39.660Z,45.59
2022-10-15T14:12:43.399Z,45.70
2022-10-15T14:13:58.971Z,45.43
2022-10-15T14:15:39.927Z,45.37
2022-10-15T14:16:48.818Z,45.34
2022-10-15T14:17:52.649Z,45.40
2022-10-15T14:19:21.866Z,45.50
2022-10-15T14:20:27.819Z,45.33
2022-10-15T14:21:32.735Z,45.04
2022-10-15T14:22:36.438Z,45.25
2022-10-15T14:23:43.239Z,45.35
2022-10-15T14:24:52.172Z,45.46
2022-10-15T14:26:05.298Z,45.53
2022-10-15T14:27:21.835Z,45.37
2022-10-15T14:28:29.457Z,44.96
2022-10-15T14:29:45.201Z,45.22
2022-10-15T14:30:50.041Z,45.44
2022-10-15T14:31:54.818Z,45.28
2022-10-15T14:32:58.929Z,45.27
2022-10-15T14:34:02.930Z,45.47
2022-10-15T14:35:22.651Z,45.22
2022-10-15T14:36:40.560Z,45.60
2022-10-15T14:37:44.205Z,47.04
2022-10-15T14:38:49.127Z,47.01
2022-10-15T14:40:12.591Z,46.37
2022-10-15T14:41:34.278Z,46.40
2022-10-15T14:42:49.456Z,46.41
2022-10-15T14:44:17.897Z,46.62
2022-10-15T14:45:29.971Z,46.95
2022-10-15T14:46:45.324Z,46.16
2022-10-15T14:48:08.094Z,46.00
2022-10-15T14:49:35.222Z,48.15
2022-10-15T14:50:44.757Z,46.30
2022-10-15T14:51:56.781Z,46.14
2022-10-15T14:53:10.318Z,45.41
2022-10-15T14:54:31.918Z,46.28
2022-10-15T14:55:47.758Z,46.20
2022-10-15T14:56:52.528Z,46.14
2022-10-15T14:57:56.474Z,45.93
2022-10-15T14:59:01.528Z,45.67
2022-10-15T15:00:25.741Z,45.75
2022-10-15T15:01:34.054Z,45.92
2022-10-15T15:02:38.002Z,45.91
2022-10-15T15:03:48.351Z,46.98
2022-10-15T15:05:13.613Z,45.78
2022-10-15T15:06:18.673Z,45.76
2022-10-15T15:07:22.978Z,46.09
2022-10-15T15:08:27.401Z,45.94
2022-10-15T15:09:31.019Z,46.17
2022-10-15T15:10:34.614Z,46.22
2022-10-15T15:11:38.494Z,46.12
2022-10-15T15:12:53.369Z,46.05
2022-10-15T15:13:57.174Z,46.59
2022-10-15T15:15:03.796Z,46.50
2022-10-15T15:16:20.210Z,46.34
2022-10-15T15:17:29.713Z,46.12
2022-10-15T15:18:34.019Z,46.41
2022-10-15T15:19:43.745Z,46.50